Time;durP1;ratioP1;P1;durP2;ratioP2;P2;SDS_P1;SDS_P2;PMS_P1;PMS_P2;Temp;Humidity;BMP_temperature;BMP_pressure;BME280_temperature;BME280_humidity;BME280_pressure;Samples;Min_cycle;Max_cycle;Signal;HPM_P1;HPM_P2
2020/12/29 00:00:14;;;;;;;29.27;13.33;;;;;;;;;;5046082;28;20250;-76
2020/12/29 00:03:18;;;;;;;29.87;14.80;;;;;;;;;;5045162;28;20562;-77
2020/12/29 00:06:23;;;;;;;26.57;13.00;;;;;;;;;;5036801;28;20203;-76
2020/12/29 00:09:28;;;;;;;26.00;12.40;;;;;;;;;;5024598;28;20219;-77
2020/12/29 00:12:33;;;;;;;29.80;13.97;;;;;;;;;;5037466;28;20358;-76
2020/12/29 00:15:40;;;;;;;30.70;14.60;;;;;;;;;;5032141;28;20303;-77
2020/12/29 00:18:45;;;;;;;33.13;15.87;;;;;;;;;;5038211;28;20235;-76
2020/12/29 00:21:50;;;;;;;33.70;16.20;;;;;;;;;;5032392;28;20247;-76
2020/12/29 00:24:54;;;;;;;33.50;15.90;;;;;;;;;;5052242;28;20199;-76
2020/12/29 00:27:59;;;;;;;33.80;15.20;;;;;;;;;;5026522;28;20242;-77
2020/12/29 00:31:05;;;;;;;33.77;16.17;;;;;;;;;;5047601;28;20231;-76
2020/12/29 00:34:09;;;;;;;29.23;13.77;;;;;;;;;;5040431;28;20196;-77
2020/12/29 00:37:15;;;;;;;33.23;14.17;;;;;;;;;;5048554;28;20199;-75
2020/12/29 00:40:19;;;;;;;33.60;12.93;;;;;;;;;;5048717;28;20208;-77
2020/12/29 00:43:24;;;;;;;44.23;16.07;;;;;;;;;;5046063;28;20211;-76
2020/12/29 00:46:30;;;;;;;96.53;19.07;;;;;;;;;;5053115;28;20316;-77
2020/12/29 00:49:37;;;;;;;188.47;17.70;;;;;;;;;;5045034;28;20199;-76
2020/12/29 00:52:42;;;;;;;152.17;16.83;;;;;;;;;;5037198;28;20613;-77
2020/12/29 00:56:01;;;;;;;333.20;20.63;;;;;;;;;;5046389;28;20203;-76
2020/12/29 00:59:06;;;;;;;243.27;18.50;;;;;;;;;;5024484;28;20239;-76
2020/12/29 01:02:14;;;;;;;135.80;17.17;;;;;;;;;;5032052;28;20278;-77
2020/12/29 01:05:39;;;;;;;62.77;16.03;;;;;;;;;;5035957;28;20235;-76
2020/12/29 01:08:44;;;;;;;123.90;18.73;;;;;;;;;;5045581;28;20239;-76
2020/12/29 01:11:51;;;;;;;109.17;16.83;;;;;;;;;;5049992;28;20262;-76
2020/12/29 01:14:55;;;;;;;143.13;16.07;;;;;;;;;;5029810;28;20219;-76
2020/12/29 01:18:05;;;;;;;253.40;19.20;;;;;;;;;;5034390;28;20215;-77
2020/12/29 01:21:10;;;;;;;181.50;18.40;;;;;;;;;;5038353;28;20234;-76
2020/12/29 01:24:15;;;;;;;282.20;20.00;;;;;;;;;;5038430;28;20342;-77
2020/12/29 01:27:20;;;;;;;265.23;19.80;;;;;;;;;;5030294;28;20257;-77
2020/12/29 01:30:25;;;;;;;209.20;18.17;;;;;;;;;;5052000;28;20206;-77
2020/12/29 01:33:30;;;;;;;292.10;20.53;;;;;;;;;;5033047;28;20208;-76
2020/12/29 01:36:35;;;;;;;153.13;16.13;;;;;;;;;;5040231;28;20195;-76
2020/12/29 01:39:39;;;;;;;108.03;15.33;;;;;;;;;;5030122;28;20191;-76
2020/12/29 01:42:46;;;;;;;76.57;14.20;;;;;;;;;;5041430;28;20649;-77
2020/12/29 01:45:51;;;;;;;46.53;11.17;;;;;;;;;;5036969;28;20195;-76
2020/12/29 01:48:56;;;;;;;172.40;14.03;;;;;;;;;;5049615;28;20191;-76
2020/12/29 01:52:01;;;;;;;241.07;16.53;;;;;;;;;;5034477;28;20231;-75
2020/12/29 01:55:07;;;;;;;121.67;13.40;;;;;;;;;;5056174;28;20249;-77
2020/12/29 01:58:12;;;;;;;85.17;13.13;;;;;;;;;;5038116;28;20310;-75
2020/12/29 02:01:17;;;;;;;54.47;12.03;;;;;;;;;;5043305;28;20227;-76
2020/12/29 02:04:22;;;;;;;59.13;12.23;;;;;;;;;;5061127;28;20180;-76
2020/12/29 02:07:29;;;;;;;100.70;12.93;;;;;;;;;;5057232;28;20207;-76
2020/12/29 02:10:33;;;;;;;49.87;11.90;;;;;;;;;;5054804;28;20215;-76
2020/12/29 02:17:14;;;;;;;32.97;11.77;;;;;;;;;;5032978;28;20192;-77
2020/12/29 02:20:20;;;;;;;28.40;12.80;;;;;;;;;;5040354;28;20203;-76
2020/12/29 02:23:25;;;;;;;22.20;10.30;;;;;;;;;;5042557;28;20659;-76
2020/12/29 02:26:33;;;;;;;22.53;11.17;;;;;;;;;;5028882;28;20327;-76
2020/12/29 02:29:37;;;;;;;21.70;10.83;;;;;;;;;;5036725;28;20203;-76
2020/12/29 02:32:42;;;;;;;28.27;11.40;;;;;;;;;;5045158;28;20230;-75
2020/12/29 02:35:47;;;;;;;23.33;10.90;;;;;;;;;;5012261;28;20676;-76
2020/12/29 02:38:52;;;;;;;22.07;10.40;;;;;;;;;;5035781;28;20265;-75
2020/12/29 02:41:57;;;;;;;22.37;10.33;;;;;;;;;;5053227;28;20309;-76
2020/12/29 02:45:02;;;;;;;22.63;10.47;;;;;;;;;;5038808;28;20279;-76
2020/12/29 02:48:07;;;;;;;20.17;9.77;;;;;;;;;;5040568;28;20200;-76
2020/12/29 02:51:14;;;;;;;19.80;9.30;;;;;;;;;;5038863;28;20653;-75
2020/12/29 02:54:20;;;;;;;20.70;9.93;;;;;;;;;;5032976;28;20196;-76
2020/12/29 02:57:25;;;;;;;21.83;10.03;;;;;;;;;;5035271;28;20195;-76
2020/12/29 03:00:29;;;;;;;20.57;10.00;;;;;;;;;;5034377;28;20710;-75
2020/12/29 03:03:34;;;;;;;20.77;10.03;;;;;;;;;;5035506;28;20254;-77
2020/12/29 03:06:38;;;;;;;19.53;8.50;;;;;;;;;;5040476;28;20203;-77
2020/12/29 03:09:44;;;;;;;20.17;9.40;;;;;;;;;;5039727;28;20223;-77
2020/12/29 03:12:48;;;;;;;22.10;9.97;;;;;;;;;;5042456;28;20238;-76
2020/12/29 03:15:53;;;;;;;22.63;9.50;;;;;;;;;;5034747;28;20717;-76
2020/12/29 03:18:58;;;;;;;21.80;9.80;;;;;;;;;;5027166;28;20262;-76
2020/12/29 03:22:03;;;;;;;25.70;10.30;;;;;;;;;;5034697;28;20250;-76
2020/12/29 03:25:08;;;;;;;23.13;9.97;;;;;;;;;;5036457;28;20206;-76
2020/12/29 03:28:13;;;;;;;23.20;10.70;;;;;;;;;;5037044;28;20236;-75
2020/12/29 03:31:18;;;;;;;19.47;9.03;;;;;;;;;;5045751;28;20272;-76
2020/12/29 03:34:25;;;;;;;19.57;9.57;;;;;;;;;;5034067;28;20200;-76
2020/12/29 03:37:29;;;;;;;18.10;8.90;;;;;;;;;;5046042;28;20207;-77
2020/12/29 03:40:35;;;;;;;19.37;9.50;;;;;;;;;;5024068;28;20637;-77
2020/12/29 03:43:40;;;;;;;19.07;9.13;;;;;;;;;;5048784;28;20345;-76
2020/12/29 03:46:45;;;;;;;21.90;9.90;;;;;;;;;;5047830;28;20306;-77
2020/12/29 03:49:49;;;;;;;21.00;9.30;;;;;;;;;;5022947;28;20191;-76
2020/12/29 03:52:54;;;;;;;19.03;9.43;;;;;;;;;;5049070;28;20617;-76
2020/12/29 03:56:00;;;;;;;18.50;8.60;;;;;;;;;;5040861;28;20682;-76
2020/12/29 03:59:04;;;;;;;19.97;9.10;;;;;;;;;;5047395;28;20218;-76
2020/12/29 04:02:09;;;;;;;18.93;8.53;;;;;;;;;;5048714;28;20227;-76
2020/12/29 04:05:14;;;;;;;17.57;9.30;;;;;;;;;;5042310;28;20210;-76
2020/12/29 04:08:18;;;;;;;17.77;8.30;;;;;;;;;;5048261;28;20210;-76
2020/12/29 04:11:25;;;;;;;18.70;8.83;;;;;;;;;;5061577;28;20234;-76
2020/12/29 04:14:30;;;;;;;18.17;8.40;;;;;;;;;;5062546;28;20203;-76
2020/12/29 04:17:36;;;;;;;18.50;9.47;;;;;;;;;;5079915;28;20175;-75
2020/12/29 04:20:40;;;;;;;23.10;10.70;;;;;;;;;;5055228;28;20237;-76
2020/12/29 04:23:45;;;;;;;22.77;11.07;;;;;;;;;;5054859;28;20226;-76
2020/12/29 04:26:50;;;;;;;22.90;10.10;;;;;;;;;;5033499;28;20198;-76
2020/12/29 04:29:55;;;;;;;21.67;9.93;;;;;;;;;;5043460;28;20582;-76
2020/12/29 04:32:59;;;;;;;24.73;11.13;;;;;;;;;;5038865;28;20222;-76
2020/12/29 04:36:05;;;;;;;22.57;10.43;;;;;;;;;;5048511;28;20651;-76
2020/12/29 04:39:09;;;;;;;24.17;10.37;;;;;;;;;;5036778;28;20254;-75
2020/12/29 04:42:15;;;;;;;20.87;9.53;;;;;;;;;;5042069;28;20235;-76
2020/12/29 04:45:20;;;;;;;24.40;10.13;;;;;;;;;;5030642;28;20656;-76
2020/12/29 04:48:25;;;;;;;21.70;10.53;;;;;;;;;;5042338;28;20237;-77
2020/12/29 04:51:31;;;;;;;23.23;10.60;;;;;;;;;;5042016;28;20223;-75
2020/12/29 04:54:36;;;;;;;20.47;9.93;;;;;;;;;;5020837;28;20275;-76
2020/12/29 04:57:45;;;;;;;27.50;10.83;;;;;;;;;;5050074;28;20203;-75
2020/12/29 05:00:50;;;;;;;28.17;10.80;;;;;;;;;;5039227;28;20316;-76
2020/12/29 05:03:55;;;;;;;22.03;10.13;;;;;;;;;;5047471;28;20223;-76
2020/12/29 05:07:03;;;;;;;20.63;9.47;;;;;;;;;;5033554;28;20290;-77
2020/12/29 05:10:08;;;;;;;23.33;10.03;;;;;;;;;;5033241;28;20276;-76
2020/12/29 05:13:13;;;;;;;22.83;10.57;;;;;;;;;;5040609;28;20191;-76
2020/12/29 05:16:17;;;;;;;22.90;10.60;;;;;;;;;;5035981;28;20223;-76
2020/12/29 05:19:22;;;;;;;24.27;11.20;;;;;;;;;;5051460;28;20638;-75
2020/12/29 05:22:28;;;;;;;25.83;10.70;;;;;;;;;;5047757;28;20238;-76
2020/12/29 05:25:32;;;;;;;23.03;10.03;;;;;;;;;;5044693;28;20246;-77
2020/12/29 05:28:38;;;;;;;22.03;10.60;;;;;;;;;;5052790;28;20211;-75
2020/12/29 05:31:44;;;;;;;24.40;10.67;;;;;;;;;;5039030;28;20263;-75
2020/12/29 05:34:48;;;;;;;24.33;10.80;;;;;;;;;;5045092;28;20541;-75
2020/12/29 05:37:56;;;;;;;23.43;10.47;;;;;;;;;;5061031;28;20716;-75
2020/12/29 05:41:01;;;;;;;44.40;18.00;;;;;;;;;;5039106;28;20227;-74
2020/12/29 05:44:08;;;;;;;29.63;11.17;;;;;;;;;;5062378;28;20226;-74
2020/12/29 05:47:13;;;;;;;30.00;12.07;;;;;;;;;;5013914;28;20189;-76
2020/12/29 05:50:18;;;;;;;23.70;10.83;;;;;;;;;;5014292;28;20641;-76
2020/12/29 05:53:23;;;;;;;33.23;12.03;;;;;;;;;;5039968;28;20601;-76
2020/12/29 05:56:32;;;;;;;23.80;10.50;;;;;;;;;;5032625;28;20203;-75
2020/12/29 05:59:38;;;;;;;28.13;11.30;;;;;;;;;;5038764;28;20558;-76
2020/12/29 06:02:46;;;;;;;23.27;10.53;;;;;;;;;;5033166;28;20754;-75
2020/12/29 06:05:50;;;;;;;25.27;11.30;;;;;;;;;;5034123;28;20585;-76
2020/12/29 06:08:56;;;;;;;26.27;11.80;;;;;;;;;;5047914;28;20230;-76
2020/12/29 06:12:01;;;;;;;29.27;11.17;;;;;;;;;;5029428;28;20311;-76
2020/12/29 06:15:07;;;;;;;25.40;11.30;;;;;;;;;;5046389;28;20227;-76
2020/12/29 06:18:11;;;;;;;24.60;11.27;;;;;;;;;;5065157;28;20209;-76
2020/12/29 06:21:18;;;;;;;24.30;10.97;;;;;;;;;;5051830;28;20330;-75
2020/12/29 06:28:14;;;;;;;27.00;11.10;;;;;;;;;;5014323;28;20188;-76
2020/12/29 06:31:27;;;;;;;23.60;10.90;;;;;;;;;;5022195;28;20281;-76
2020/12/29 06:34:44;;;;;;;21.77;10.53;;;;;;;;;;5041164;28;20207;-75
2020/12/29 06:37:54;;;;;;;26.97;10.93;;;;;;;;;;5033026;28;20227;-76
2020/12/29 06:40:58;;;;;;;25.40;10.93;;;;;;;;;;5034140;28;20357;-76
2020/12/29 06:44:03;;;;;;;26.47;11.37;;;;;;;;;;5017829;28;20647;-76
2020/12/29 06:47:10;;;;;;;25.03;11.10;;;;;;;;;;5025089;28;20618;-76
2020/12/29 06:50:22;;;;;;;24.90;11.60;;;;;;;;;;5023969;28;20204;-76
2020/12/29 06:53:27;;;;;;;25.20;10.83;;;;;;;;;;5036724;28;20219;-76
2020/12/29 06:56:32;;;;;;;31.03;12.07;;;;;;;;;;5031613;28;20207;-77
2020/12/29 06:59:39;;;;;;;25.20;11.30;;;;;;;;;;5040920;28;20223;-76
2020/12/29 07:02:46;;;;;;;27.47;12.47;;;;;;;;;;5031760;28;20246;-76
2020/12/29 07:05:51;;;;;;;26.07;11.17;;;;;;;;;;5039584;28;20241;-76
2020/12/29 07:09:02;;;;;;;25.57;10.87;;;;;;;;;;5025602;28;20258;-77
2020/12/29 07:12:08;;;;;;;25.07;11.30;;;;;;;;;;5021989;28;20582;-75
2020/12/29 07:15:16;;;;;;;23.70;10.90;;;;;;;;;;5041951;28;20285;-75
2020/12/29 07:18:22;;;;;;;24.70;11.57;;;;;;;;;;5050895;28;20285;-75
2020/12/29 07:21:27;;;;;;;20.40;9.97;;;;;;;;;;5029466;28;20300;-76
2020/12/29 07:24:34;;;;;;;22.43;11.07;;;;;;;;;;5048517;28;20223;-75
2020/12/29 07:27:41;;;;;;;21.80;11.13;;;;;;;;;;5040936;28;20735;-75
2020/12/29 07:30:46;;;;;;;25.53;12.27;;;;;;;;;;5050596;28;20274;-76
2020/12/29 07:33:53;;;;;;;28.03;12.43;;;;;;;;;;5025368;28;20235;-76
2020/12/29 07:36:58;;;;;;;28.63;12.80;;;;;;;;;;5028181;28;20223;-75
2020/12/29 07:40:03;;;;;;;26.10;11.27;;;;;;;;;;5038805;28;20227;-75
2020/12/29 07:43:08;;;;;;;26.33;11.37;;;;;;;;;;5031666;28;20712;-75
2020/12/29 07:46:13;;;;;;;27.67;11.80;;;;;;;;;;5044402;28;20203;-76
2020/12/29 07:49:19;;;;;;;23.90;10.40;;;;;;;;;;5042338;28;20257;-76
2020/12/29 07:52:24;;;;;;;31.80;12.50;;;;;;;;;;5033782;28;20693;-76
2020/12/29 07:55:29;;;;;;;24.93;11.23;;;;;;;;;;5030709;28;20298;-76
2020/12/29 07:58:34;;;;;;;26.27;11.43;;;;;;;;;;5019329;28;20212;-77
2020/12/29 08:01:55;;;;;;;23.40;10.67;;;;;;;;;;5030906;28;20308;-77
2020/12/29 08:05:01;;;;;;;24.50;10.90;;;;;;;;;;5037030;28;20238;-77
2020/12/29 08:08:07;;;;;;;23.13;11.37;;;;;;;;;;5021658;28;20292;-77
2020/12/29 08:11:11;;;;;;;25.83;11.73;;;;;;;;;;5022290;28;20273;-77
2020/12/29 08:14:17;;;;;;;26.00;11.63;;;;;;;;;;5047946;28;20294;-77
2020/12/29 08:17:22;;;;;;;27.67;13.10;;;;;;;;;;5039349;28;20199;-76
2020/12/29 08:20:29;;;;;;;23.20;10.73;;;;;;;;;;5036924;28;20211;-77
2020/12/29 08:23:34;;;;;;;22.90;11.10;;;;;;;;;;5049102;28;20233;-77
2020/12/29 08:26:38;;;;;;;25.13;11.00;;;;;;;;;;5035265;28;20331;-77
2020/12/29 08:29:43;;;;;;;24.83;11.33;;;;;;;;;;5042329;28;20199;-77
2020/12/29 08:32:49;;;;;;;25.57;11.03;;;;;;;;;;5025070;28;20235;-77
2020/12/29 08:35:56;;;;;;;25.73;10.87;;;;;;;;;;5050445;28;20275;-77
2020/12/29 08:39:08;;;;;;;24.27;9.93;;;;;;;;;;5051776;28;20329;-79
2020/12/29 08:42:17;;;;;;;24.37;10.77;;;;;;;;;;5028870;28;20228;-77
2020/12/29 08:45:27;;;;;;;22.40;10.10;;;;;;;;;;5015745;28;20197;-77
2020/12/29 08:48:32;;;;;;;25.80;10.80;;;;;;;;;;5039859;28;20691;-77
2020/12/29 08:51:40;;;;;;;21.77;10.73;;;;;;;;;;5030651;28;20235;-77
2020/12/29 08:54:45;;;;;;;21.43;9.43;;;;;;;;;;5043663;28;20751;-77
2020/12/29 08:57:51;;;;;;;20.27;9.20;;;;;;;;;;5027620;28;20251;-77
2020/12/29 09:00:56;;;;;;;20.23;9.40;;;;;;;;;;5045277;28;20235;-77
2020/12/29 09:04:20;;;;;;;19.90;8.80;;;;;;;;;;5031330;28;20213;-76
2020/12/29 09:07:25;;;;;;;25.47;9.87;;;;;;;;;;5035912;28;20286;-77
2020/12/29 09:10:30;;;;;;;34.03;12.57;;;;;;;;;;5041629;28;20203;-77
2020/12/29 09:13:34;;;;;;;27.73;12.00;;;;;;;;;;5035074;28;20227;-76
2020/12/29 09:16:59;;;;;;;26.27;11.70;;;;;;;;;;5035929;28;20231;-78
2020/12/29 09:20:07;;;;;;;23.77;10.43;;;;;;;;;;5024669;28;20274;-76
2020/12/29 09:23:15;;;;;;;23.37;10.83;;;;;;;;;;5031651;28;20203;-74
2020/12/29 09:26:20;;;;;;;21.90;10.47;;;;;;;;;;5031410;28;20609;-75
2020/12/29 09:29:25;;;;;;;23.50;10.70;;;;;;;;;;5034734;28;20691;-74
2020/12/29 09:32:29;;;;;;;23.10;10.23;;;;;;;;;;5040622;28;20273;-75
2020/12/29 09:35:34;;;;;;;24.37;10.60;;;;;;;;;;5042943;28;20228;-75
2020/12/29 09:38:39;;;;;;;25.57;10.60;;;;;;;;;;5036529;28;20251;-75
2020/12/29 09:41:44;;;;;;;21.87;10.33;;;;;;;;;;5058895;28;20284;-74
2020/12/29 09:44:49;;;;;;;24.43;11.73;;;;;;;;;;5037378;28;20617;-75
2020/12/29 09:47:53;;;;;;;24.17;11.83;;;;;;;;;;5034837;28;20219;-75
2020/12/29 09:50:58;;;;;;;24.97;11.27;;;;;;;;;;5025346;28;20235;-75
2020/12/29 09:54:05;;;;;;;23.53;11.47;;;;;;;;;;5030754;28;20247;-75
2020/12/29 09:57:10;;;;;;;25.03;11.43;;;;;;;;;;5037452;28;20223;-75
2020/12/29 10:00:14;;;;;;;23.87;11.10;;;;;;;;;;5027685;28;20790;-76
2020/12/29 10:03:19;;;;;;;24.93;11.53;;;;;;;;;;5042328;28;20738;-77
2020/12/29 10:06:24;;;;;;;24.87;10.70;;;;;;;;;;5031343;28;20631;-76
2020/12/29 10:09:29;;;;;;;23.60;10.73;;;;;;;;;;5043066;28;20258;-76
2020/12/29 10:12:34;;;;;;;28.57;12.93;;;;;;;;;;5045373;28;20223;-76
2020/12/29 10:15:41;;;;;;;27.43;11.97;;;;;;;;;;5033394;28;20262;-75
2020/12/29 10:18:45;;;;;;;24.90;11.13;;;;;;;;;;5051475;28;20737;-76
2020/12/29 10:21:53;;;;;;;22.17;11.37;;;;;;;;;;5038542;28;20277;-76
2020/12/29 10:24:58;;;;;;;18.77;8.90;;;;;;;;;;5036170;28;20234;-76
2020/12/29 10:28:04;;;;;;;18.67;9.33;;;;;;;;;;5035260;28;20711;-76
2020/12/29 10:31:09;;;;;;;20.60;10.07;;;;;;;;;;5029231;28;20222;-76
2020/12/29 10:34:14;;;;;;;19.53;8.77;;;;;;;;;;5034817;28;20207;-76
2020/12/29 10:37:19;;;;;;;19.63;8.60;;;;;;;;;;5037670;28;20703;-77
2020/12/29 10:40:25;;;;;;;16.93;8.27;;;;;;;;;;5040836;28;20192;-76
2020/12/29 10:43:30;;;;;;;22.67;9.47;;;;;;;;;;5060615;28;20243;-75
2020/12/29 10:46:34;;;;;;;16.70;9.30;;;;;;;;;;5075160;28;20199;-75
2020/12/29 10:49:39;;;;;;;21.93;9.77;;;;;;;;;;5064856;28;20191;-77
2020/12/29 10:52:44;;;;;;;21.20;9.83;;;;;;;;;;5047490;28;20269;-77
2020/12/29 10:55:49;;;;;;;17.10;9.20;;;;;;;;;;5032957;28;20259;-77
2020/12/29 10:58:54;;;;;;;25.90;11.80;;;;;;;;;;5021027;28;20732;-77
2020/12/29 11:01:59;;;;;;;21.47;10.20;;;;;;;;;;5024528;28;20232;-76
2020/12/29 11:05:04;;;;;;;21.50;10.50;;;;;;;;;;5022577;28;20659;-76
2020/12/29 11:08:08;;;;;;;21.93;10.40;;;;;;;;;;5036703;28;20738;-76
2020/12/29 11:11:14;;;;;;;22.57;11.23;;;;;;;;;;5031897;28;20242;-77
2020/12/29 11:14:19;;;;;;;22.73;10.93;;;;;;;;;;5039612;28;20208;-76
2020/12/29 11:17:26;;;;;;;25.70;12.37;;;;;;;;;;5039800;28;20207;-77
2020/12/29 11:20:30;;;;;;;22.63;11.20;;;;;;;;;;5040960;28;20698;-76
2020/12/29 11:23:35;;;;;;;26.27;11.30;;;;;;;;;;5032320;28;20254;-77
2020/12/29 11:26:41;;;;;;;18.23;8.43;;;;;;;;;;5045827;28;20202;-76
2020/12/29 11:29:45;;;;;;;17.93;8.13;;;;;;;;;;5027154;28;20208;-77
2020/12/29 11:32:50;;;;;;;20.30;9.10;;;;;;;;;;5023822;28;20231;-76
2020/12/29 11:35:55;;;;;;;19.67;9.10;;;;;;;;;;5019841;28;20242;-76
2020/12/29 11:38:59;;;;;;;17.87;9.33;;;;;;;;;;5028417;28;20268;-76
2020/12/29 11:42:05;;;;;;;16.87;8.53;;;;;;;;;;5025135;28;20242;-76
2020/12/29 11:45:10;;;;;;;16.93;8.03;;;;;;;;;;5019124;28;20702;-76
2020/12/29 11:48:14;;;;;;;17.17;8.90;;;;;;;;;;5031872;28;20203;-76
2020/12/29 11:51:20;;;;;;;20.60;8.80;;;;;;;;;;5029100;28;20285;-77
2020/12/29 11:54:25;;;;;;;15.70;7.80;;;;;;;;;;5019327;28;20213;-76
2020/12/29 11:57:31;;;;;;;16.57;7.70;;;;;;;;;;5022445;28;20271;-77
2020/12/29 12:00:36;;;;;;;21.17;8.60;;;;;;;;;;5025041;28;20201;-76
2020/12/29 12:03:41;;;;;;;17.57;8.63;;;;;;;;;;5026739;28;20247;-76
2020/12/29 12:06:46;;;;;;;14.67;7.93;;;;;;;;;;5020189;28;20286;-76
2020/12/29 12:09:51;;;;;;;16.27;7.87;;;;;;;;;;5021549;28;20196;-76
2020/12/29 12:12:57;;;;;;;23.27;9.70;;;;;;;;;;5023932;28;20697;-77
2020/12/29 12:16:01;;;;;;;19.70;9.23;;;;;;;;;;5035710;28;20646;-76
2020/12/29 12:19:07;;;;;;;19.87;8.70;;;;;;;;;;5036437;28;20223;-76
2020/12/29 12:22:12;;;;;;;17.67;8.70;;;;;;;;;;5039399;28;20730;-77
2020/12/29 12:25:17;;;;;;;17.00;7.93;;;;;;;;;;5041082;28;20203;-77
2020/12/29 12:28:24;;;;;;;23.87;8.87;;;;;;;;;;5051494;28;20283;-77
2020/12/29 12:31:28;;;;;;;18.83;9.00;;;;;;;;;;5036876;28;20246;-77
2020/12/29 12:34:33;;;;;;;24.13;9.40;;;;;;;;;;5039494;28;20722;-77
2020/12/29 12:37:38;;;;;;;17.67;8.60;;;;;;;;;;5050151;28;20250;-77
2020/12/29 12:40:43;;;;;;;17.37;8.37;;;;;;;;;;5061373;28;20207;-77
2020/12/29 12:43:49;;;;;;;14.13;7.37;;;;;;;;;;5055320;28;20266;-77
2020/12/29 12:46:54;;;;;;;18.47;8.47;;;;;;;;;;5040401;28;20207;-77
2020/12/29 12:49:59;;;;;;;22.57;8.90;;;;;;;;;;5052162;28;20226;-78
2020/12/29 12:53:03;;;;;;;20.20;8.93;;;;;;;;;;5055248;28;20194;-77
2020/12/29 12:56:26;;;;;;;22.37;9.70;;;;;;;;;;5055283;28;20190;-77
2020/12/29 12:59:32;;;;;;;23.57;9.20;;;;;;;;;;5044132;28;20207;-77
2020/12/29 13:02:57;;;;;;;23.17;10.13;;;;;;;;;;5038860;28;20475;-78
2020/12/29 13:06:04;;;;;;;17.17;8.80;;;;;;;;;;5025142;28;20215;-78
2020/12/29 13:09:08;;;;;;;18.20;8.70;;;;;;;;;;5030645;28;20196;-78
2020/12/29 13:12:13;;;;;;;19.33;8.87;;;;;;;;;;5022341;28;20731;-78
2020/12/29 13:15:18;;;;;;;21.20;10.13;;;;;;;;;;5025404;28;20220;-78
2020/12/29 13:18:23;;;;;;;18.87;9.27;;;;;;;;;;5047425;28;20242;-77
2020/12/29 13:21:28;;;;;;;20.20;9.30;;;;;;;;;;5045285;28;20240;-78
2020/12/29 13:24:33;;;;;;;22.30;9.10;;;;;;;;;;5053788;28;20210;-77
2020/12/29 13:27:38;;;;;;;23.63;9.90;;;;;;;;;;5050505;28;20211;-77
2020/12/29 13:30:49;;;;;;;17.87;9.30;;;;;;;;;;5044303;28;20203;-77
2020/12/29 13:33:54;;;;;;;21.50;11.07;;;;;;;;;;5054546;28;20216;-77
2020/12/29 13:37:00;;;;;;;18.97;9.77;;;;;;;;;;5040895;28;20203;-78
2020/12/29 13:40:05;;;;;;;23.13;10.27;;;;;;;;;;5027383;28;20232;-77
2020/12/29 13:43:11;;;;;;;21.70;10.17;;;;;;;;;;5027373;28;20351;-77
2020/12/29 13:46:18;;;;;;;20.50;9.30;;;;;;;;;;5024311;28;20204;-77
2020/12/29 13:49:23;;;;;;;20.53;8.60;;;;;;;;;;5037497;28;20219;-77
2020/12/29 13:52:28;;;;;;;26.47;11.00;;;;;;;;;;5031588;28;20254;-78
2020/12/29 13:55:32;;;;;;;20.07;8.73;;;;;;;;;;5025932;28;20208;-77
2020/12/29 13:58:37;;;;;;;27.57;11.37;;;;;;;;;;5050761;28;20307;-77
2020/12/29 14:01:49;;;;;;;82.17;27.60;;;;;;;;;;5017330;28;20244;-78
2020/12/29 14:04:57;;;;;;;25.57;10.47;;;;;;;;;;5030622;28;20203;-77
2020/12/29 14:08:12;;;;;;;22.17;10.47;;;;;;;;;;5024213;28;20220;-77
2020/12/29 14:11:20;;;;;;;22.50;10.57;;;;;;;;;;5039417;28;20231;-77
2020/12/29 14:14:25;;;;;;;22.73;10.67;;;;;;;;;;5035138;28;20710;-77
2020/12/29 14:17:31;;;;;;;23.33;11.10;;;;;;;;;;5037020;28;20517;-76
2020/12/29 14:20:36;;;;;;;25.03;12.73;;;;;;;;;;5035658;28;20232;-76
2020/12/29 14:23:40;;;;;;;28.43;12.53;;;;;;;;;;5029695;28;20670;-77
2020/12/29 14:26:48;;;;;;;28.47;12.40;;;;;;;;;;5050057;28;20200;-77
2020/12/29 14:29:53;;;;;;;24.53;11.73;;;;;;;;;;5046564;28;20270;-77
2020/12/29 14:33:00;;;;;;;29.53;13.30;;;;;;;;;;5039181;28;20239;-77
2020/12/29 14:36:05;;;;;;;28.87;14.97;;;;;;;;;;5038074;28;20215;-78
2020/12/29 14:39:11;;;;;;;30.77;14.57;;;;;;;;;;5042688;28;20223;-78
2020/12/29 14:42:16;;;;;;;28.07;14.00;;;;;;;;;;5053199;28;20220;-77
2020/12/29 14:45:21;;;;;;;34.13;16.63;;;;;;;;;;5050505;28;20215;-77
2020/12/29 14:48:26;;;;;;;41.23;19.83;;;;;;;;;;5037818;28;20220;-78
2020/12/29 14:51:31;;;;;;;43.60;20.97;;;;;;;;;;5029231;28;20710;-77
2020/12/29 14:54:39;;;;;;;40.63;18.60;;;;;;;;;;5014325;28;20203;-77
2020/12/29 14:57:44;;;;;;;28.67;13.67;;;;;;;;;;5034565;28;20200;-78
2020/12/29 15:00:49;;;;;;;28.67;14.37;;;;;;;;;;5030907;28;20658;-77
2020/12/29 15:03:54;;;;;;;47.20;23.27;;;;;;;;;;5027554;28;20262;-78
2020/12/29 15:07:00;;;;;;;32.97;15.93;;;;;;;;;;5029060;28;20829;-77
2020/12/29 15:10:06;;;;;;;67.97;26.87;;;;;;;;;;5033276;28;20293;-78
2020/12/29 15:13:10;;;;;;;68.47;27.77;;;;;;;;;;5029914;28;20186;-78
2020/12/29 15:16:20;;;;;;;39.37;16.00;;;;;;;;;;5053510;28;20205;-77
2020/12/29 15:19:26;;;;;;;30.30;13.27;;;;;;;;;;5052692;28;20272;-78
2020/12/29 15:22:58;;;;;;;32.93;14.10;;;;;;;;;;5056313;28;20214;-77
2020/12/29 15:26:04;;;;;;;39.90;18.10;;;;;;;;;;5032612;28;20697;-77
2020/12/29 15:29:09;;;;;;;32.50;16.10;;;;;;;;;;5031961;28;20200;-78
2020/12/29 15:32:13;;;;;;;29.03;13.33;;;;;;;;;;5036551;28;20246;-78
2020/12/29 15:35:21;;;;;;;34.03;14.13;;;;;;;;;;5019618;28;20251;-77
2020/12/29 15:38:26;;;;;;;30.17;12.57;;;;;;;;;;5027740;28;20231;-78
2020/12/29 15:41:31;;;;;;;22.00;10.80;;;;;;;;;;5015674;28;20644;-78
2020/12/29 15:44:37;;;;;;;23.23;11.00;;;;;;;;;;5049961;28;20230;-78
2020/12/29 15:47:41;;;;;;;23.23;10.63;;;;;;;;;;5017717;28;20204;-78
2020/12/29 15:50:47;;;;;;;27.33;12.83;;;;;;;;;;5024791;28;20317;-78
2020/12/29 15:53:53;;;;;;;24.23;12.53;;;;;;;;;;5035620;28;20254;-78
2020/12/29 15:56:57;;;;;;;24.00;11.37;;;;;;;;;;5039861;28;20207;-78
2020/12/29 16:00:02;;;;;;;28.73;13.23;;;;;;;;;;5024112;28;20599;-78
2020/12/29 16:03:12;;;;;;;42.13;17.27;;;;;;;;;;5028279;28;20215;-77
2020/12/29 16:06:18;;;;;;;45.00;16.57;;;;;;;;;;5031223;28;20218;-78
2020/12/29 16:09:22;;;;;;;36.43;14.93;;;;;;;;;;5036476;28;20202;-79
2020/12/29 16:12:27;;;;;;;36.07;15.70;;;;;;;;;;5036676;28;20239;-78
2020/12/29 16:15:32;;;;;;;33.50;14.33;;;;;;;;;;5022086;28;20263;-78
2020/12/29 16:18:39;;;;;;;22.77;11.40;;;;;;;;;;5037698;28;20258;-78
2020/12/29 16:21:45;;;;;;;26.90;11.37;;;;;;;;;;5029879;28;20270;-78
2020/12/29 16:24:50;;;;;;;31.03;11.90;;;;;;;;;;5034031;28;20222;-78
2020/12/29 16:27:55;;;;;;;28.27;11.50;;;;;;;;;;5032808;28;20263;-78
2020/12/29 16:31:00;;;;;;;26.53;11.50;;;;;;;;;;5029051;28;20227;-78
2020/12/29 16:34:06;;;;;;;25.27;10.83;;;;;;;;;;5035795;28;20219;-78
2020/12/29 16:37:14;;;;;;;24.90;10.20;;;;;;;;;;5035417;28;20271;-78
2020/12/29 16:40:20;;;;;;;30.50;12.53;;;;;;;;;;5023382;28;20285;-78
2020/12/29 16:43:25;;;;;;;21.80;9.73;;;;;;;;;;5032575;28;20216;-78
2020/12/29 16:46:34;;;;;;;22.70;10.30;;;;;;;;;;5035990;28;20215;-77
2020/12/29 16:49:39;;;;;;;27.90;11.57;;;;;;;;;;5038602;28;20284;-77
2020/12/29 16:52:46;;;;;;;26.73;11.13;;;;;;;;;;5027760;28;20603;-77
2020/12/29 16:55:51;;;;;;;27.97;10.10;;;;;;;;;;5027614;28;20280;-77
2020/12/29 16:58:57;;;;;;;23.93;10.73;;;;;;;;;;5024495;28;20230;-77
2020/12/29 17:02:02;;;;;;;35.90;12.87;;;;;;;;;;5035126;28;20690;-78
2020/12/29 17:05:07;;;;;;;24.57;11.20;;;;;;;;;;5042576;28;20207;-78
2020/12/29 17:08:12;;;;;;;27.53;11.97;;;;;;;;;;5029063;28;20295;-77
2020/12/29 17:11:18;;;;;;;37.87;14.97;;;;;;;;;;5037272;28;20316;-78
2020/12/29 17:14:23;;;;;;;36.30;16.53;;;;;;;;;;5040732;28;20635;-78
2020/12/29 17:17:28;;;;;;;32.87;15.93;;;;;;;;;;5050127;28;20314;-78
2020/12/29 17:20:33;;;;;;;26.97;12.43;;;;;;;;;;5046377;28;20301;-78
2020/12/29 17:23:39;;;;;;;28.53;12.30;;;;;;;;;;5037819;28;20188;-78
2020/12/29 17:26:43;;;;;;;22.63;10.77;;;;;;;;;;5038625;28;20203;-79
2020/12/29 17:29:48;;;;;;;26.03;11.13;;;;;;;;;;5036224;28;20211;-79
2020/12/29 17:32:53;;;;;;;23.57;10.10;;;;;;;;;;5031977;28;20228;-79
2020/12/29 17:36:00;;;;;;;27.73;11.83;;;;;;;;;;5050362;28;20586;-78
2020/12/29 17:39:08;;;;;;;29.07;13.27;;;;;;;;;;5043504;28;20219;-78
2020/12/29 17:42:13;;;;;;;30.47;12.40;;;;;;;;;;5036959;28;20255;-78
2020/12/29 17:45:18;;;;;;;26.73;11.07;;;;;;;;;;5047171;28;20245;-78
2020/12/29 17:48:24;;;;;;;26.00;10.37;;;;;;;;;;5025337;28;20228;-78
2020/12/29 17:51:29;;;;;;;30.67;13.57;;;;;;;;;;5034851;28;20605;-78
2020/12/29 17:54:34;;;;;;;29.30;11.97;;;;;;;;;;5033781;28;20215;-77
2020/12/29 17:57:39;;;;;;;30.87;12.43;;;;;;;;;;5032161;28;20541;-77
2020/12/29 18:00:44;;;;;;;27.13;11.83;;;;;;;;;;5035143;28;20226;-77
2020/12/29 18:03:48;;;;;;;29.00;11.63;;;;;;;;;;5037781;28;20261;-78
2020/12/29 18:06:53;;;;;;;29.33;12.03;;;;;;;;;;5027633;28;20330;-78
2020/12/29 18:09:59;;;;;;;22.13;10.63;;;;;;;;;;5025451;28;20605;-78